METAR and TAF’s


Available data for KLBB from the past 2 hours
LUBBOCK, TX
Metar
KLBB 172053Z 19011G23KT 10SM FEW100 36/10 A3010 RMK AO2 SLP130 T03610100 58017

20:53 UTC

Wind: 190° 11kt

Visibility: 10 SM

Sky: FEW 10000 ft

Temp: 36 deg C / 96.8 deg F

Dewpoint: 10 deg C / 50 deg F

Pressure: 30.1 inHg

TAF
KLBB 171720Z 1718/1818 24010KT P6SM FEW250 FM172100 17010KT P6SM FEW090 FEW250
Available data for KCVN from the past 2 hours
CLOVIS MUNI, NM
Metar
KCVN 172056Z AUTO 17008G16KT 10SM SCT090 BKN110 32/14 A3016 RMK AO2 SLP164 T03220139 58018

20:56 UTC

Wind: 170° 8kt

Visibility: 10 SM

Sky: SCT 9000 ft

Temp: 32 deg C / 89.6 deg F

Dewpoint: 14 deg C / 57.2 deg F

Pressure: 30.16 inHg